Time;durP1;ratioP1;P1;durP2;ratioP2;P2;SDS_P1;SDS_P2;PMS_P1;PMS_P2;Temp;Humidity;BMP_temperature;BMP_pressure;BME280_temperature;BME280_humidity;BME280_pressure;Samples;Min_cycle;Max_cycle;Signal;HPM_P1;HPM_P2
2022/06/22 00:01:39;;;;;;;;;12.75;12.75;30.80;31.40;;;;;;5075415;28;11535;-71
2022/06/22 00:04:06;;;;;;;;;13.75;13.75;30.80;31.20;;;;;;5075034;28;11453;-73
2022/06/22 00:06:39;;;;;;;;;11.75;11.75;30.80;31.40;;;;;;5075285;28;11455;-71
2022/06/22 00:09:06;;;;;;;;;13.75;13.75;30.70;31.60;;;;;;5075387;28;11600;-72
2022/06/22 00:11:35;;;;;;;;;11.00;11.00;30.70;31.70;;;;;;5074763;28;11501;-72
2022/06/22 00:14:02;;;;;;;;;15.00;15.00;30.70;31.70;;;;;;5074454;28;11449;-73
2022/06/22 00:16:36;;;;;;;;;8.75;8.75;30.60;31.80;;;;;;5075564;28;11435;-72
2022/06/22 00:19:16;;;;;;;;;12.00;12.00;30.70;32.00;;;;;;5085937;28;11436;-72
2022/06/22 00:21:42;;;;;;;;;13.00;13.00;30.60;32.00;;;;;;5095294;28;11435;-72
2022/06/22 00:24:23;;;;;;;;;13.50;13.50;30.50;32.30;;;;;;5094748;28;11439;-72
2022/06/22 00:26:55;;;;;;;;;12.00;12.00;30.40;32.00;;;;;;5094950;28;11530;-73
2022/06/22 00:29:24;;;;;;;;;11.00;11.00;30.40;33.00;;;;;;5094805;28;11440;-71
2022/06/22 00:31:50;;;;;;;;;13.00;13.00;30.40;31.70;;;;;;5094642;28;11555;-73
2022/06/22 00:34:21;;;;;;;;;9.75;9.75;30.40;31.70;;;;;;5094771;28;11405;-71
2022/06/22 00:37:02;;;;;;;;;9.00;9.00;30.20;31.80;;;;;;5094968;28;8744;-73
2022/06/22 00:39:36;;;;;;;;;11.50;11.50;30.30;31.80;;;;;;5094986;28;11383;-72
2022/06/22 00:42:18;;;;;;;;;12.00;12.00;30.30;31.30;;;;;;5094988;28;11500;-72
2022/06/22 00:45:06;;;;;;;;;8.75;8.75;30.30;30.70;;;;;;5082209;28;11448;-73
2022/06/22 00:47:46;;;;;;;;;10.00;10.00;30.30;30.90;;;;;;5074406;28;11371;-73
2022/06/22 00:50:20;;;;;;;;;9.75;9.75;30.30;30.70;;;;;;5074315;28;11453;-72
2022/06/22 00:52:54;;;;;;;;;9.50;9.50;30.30;30.30;;;;;;5074579;28;11432;-73
2022/06/22 00:55:28;;;;;;;;;10.00;10.00;30.30;30.30;;;;;;5074305;28;11376;-73
2022/06/22 00:58:09;;;;;;;;;10.25;10.25;30.10;29.60;;;;;;5074474;28;12118;-72
2022/06/22 01:00:39;;;;;;;;;8.00;8.00;30.10;29.30;;;;;;5056537;28;11446;-70
2022/06/22 01:03:51;;;;;;;;;7.00;7.00;30.00;28.90;;;;;;5074282;28;11410;-71
2022/06/22 01:06:29;;;;;;;;;9.00;9.00;30.10;28.90;;;;;;5070173;28;12038;-72
2022/06/22 01:09:03;;;;;;;;;6.00;6.00;30.00;28.50;;;;;;5074836;28;11481;-71
2022/06/22 01:14:43;;;;;;;;;7.00;7.00;29.80;27.90;;;;;;5074189;28;11358;-71
2022/06/22 01:17:24;;;;;;;;;4.00;4.00;29.90;27.50;;;;;;5074227;28;11466;-71
2022/06/22 01:20:20;;;;;;;;;4.75;4.75;29.90;27.40;;;;;;5074317;28;11427;-71
2022/06/22 01:23:03;;;;;;;;;6.00;6.00;29.80;26.70;;;;;;5074197;28;11391;-71
2022/06/22 01:25:50;;;;;;;;;6.00;6.00;29.70;26.60;;;;;;5074374;28;11488;-71
2022/06/22 01:28:16;;;;;;;;;6.00;6.00;29.70;26.60;;;;;;5074226;28;12130;-71
2022/06/22 01:30:49;;;;;;;;;6.00;6.00;29.60;26.60;;;;;;5074138;28;11414;-72
2022/06/22 01:33:23;;;;;;;;;7.25;7.25;29.60;26.50;;;;;;5074272;28;11383;-72
2022/06/22 01:35:55;;;;;;;;;11.75;11.75;29.60;26.50;;;;;;5075648;28;11390;-71
2022/06/22 01:38:23;;;;;;;;;12.50;12.50;29.50;26.60;;;;;;5077979;28;11560;-72
2022/06/22 01:40:57;;;;;;;;;10.00;10.00;29.40;26.70;;;;;;5077828;28;11442;-72
2022/06/22 01:43:32;;;;;;;;;11.00;11.00;29.50;26.80;;;;;;5078056;28;11449;-73
2022/06/22 01:46:14;;;;;;;;;6.50;6.50;29.40;26.70;;;;;;5077799;28;11417;-72
2022/06/22 01:48:50;;;;;;;;;6.00;6.00;29.20;26.80;;;;;;5077786;28;11398;-70
2022/06/22 01:51:16;;;;;;;;;12.75;12.75;29.20;27.00;;;;;;5082891;28;11437;-73
2022/06/22 01:53:52;;;;;;;;;11.75;11.50;28.90;27.00;;;;;;5097880;28;11464;-71
2022/06/22 01:56:34;;;;;;;;;14.25;13.75;29.00;27.40;;;;;;5098176;28;8748;-71
2022/06/22 01:59:30;;;;;;;;;12.00;12.00;29.00;27.20;;;;;;5097848;28;11415;-72
2022/06/22 02:02:02;;;;;;;;;8.75;8.75;29.10;27.50;;;;;;5097852;28;11466;-70
2022/06/22 02:04:58;;;;;;;;;18.67;17.67;29.00;27.10;;;;;;5097921;28;11403;-72
2022/06/22 02:07:44;;;;;;;;;17.00;17.00;29.00;26.90;;;;;;5097852;28;11472;-72
2022/06/22 02:10:47;;;;;;;;;17.00;16.25;29.10;26.80;;;;;;5097808;28;11471;-71
2022/06/22 02:13:36;;;;;;;;;7.75;7.75;29.10;26.90;;;;;;5097567;28;11459;-71
2022/06/22 02:16:24;;;;;;;;;2.50;2.50;29.20;26.80;;;;;;5097534;28;11410;-72
2022/06/22 02:19:10;;;;;;;;;4.00;4.00;29.20;26.60;;;;;;5097347;28;11440;-72
2022/06/22 02:21:42;;;;;;;;;5.25;5.25;29.10;26.70;;;;;;5097621;28;11404;-72
2022/06/22 02:24:26;;;;;;;;;5.00;5.00;29.20;26.70;;;;;;5097357;28;11531;-72
2022/06/22 02:27:10;;;;;;;;;6.00;6.00;29.20;26.70;;;;;;5097667;28;11482;-72
2022/06/22 02:29:40;;;;;;;;;13.00;12.00;29.20;26.70;;;;;;5097226;28;11398;-72
2022/06/22 02:32:11;;;;;;;;;15.00;15.00;29.20;26.70;;;;;;5097092;28;11527;-72
2022/06/22 02:34:39;;;;;;;;;14.33;14.33;29.00;26.90;;;;;;5097371;28;11427;-71
2022/06/22 02:37:08;;;;;;;;;15.33;14.67;28.80;26.70;;;;;;5096893;28;11444;-73
2022/06/22 02:39:43;;;;;;;;;9.25;9.25;28.60;27.00;;;;;;5097022;28;11427;-72
2022/06/22 02:44:55;;;;;;;;;5.00;5.00;28.70;26.90;;;;;;5097071;28;11335;-71
2022/06/22 02:47:29;;;;;;;;;4.00;4.00;28.80;26.80;;;;;;5096596;28;11482;-71
2022/06/22 02:50:13;;;;;;;;;5.25;5.25;28.70;27.00;;;;;;5096839;28;11383;-71
2022/06/22 02:52:49;;;;;;;;;5.50;5.50;28.70;27.00;;;;;;5096813;28;11400;-71
2022/06/22 02:55:22;;;;;;;;;5.00;5.00;28.90;27.20;;;;;;5096735;28;11391;-71
2022/06/22 02:57:56;;;;;;;;;5.75;5.75;28.90;26.80;;;;;;5096992;28;11553;-72
2022/06/22 03:00:31;;;;;;;;;5.25;5.25;28.90;27.10;;;;;;5096687;28;11399;-71
2022/06/22 03:03:06;;;;;;;;;5.25;5.25;28.80;26.90;;;;;;5096667;28;11402;-71
2022/06/22 03:05:34;;;;;;;;;5.00;5.00;28.90;26.70;;;;;;5096544;28;11400;-73
2022/06/22 03:08:02;;;;;;;;;5.00;5.00;28.80;26.50;;;;;;5096746;28;12106;-71
2022/06/22 03:10:41;;;;;;;;;4.00;4.00;28.80;26.40;;;;;;5096424;28;11387;-73
2022/06/22 03:13:10;;;;;;;;;5.00;5.00;28.80;26.30;;;;;;5096399;28;12061;-72
2022/06/22 03:15:37;;;;;;;;;6.75;6.75;28.80;26.50;;;;;;5096442;28;11482;-72
2022/06/22 03:18:04;;;;;;;;;4.75;4.75;28.70;26.30;;;;;;5096117;28;11432;-73
2022/06/22 03:20:39;;;;;;;;;6.00;6.00;28.70;26.60;;;;;;5096357;28;11397;-71
2022/06/22 03:23:27;;;;;;;;;5.00;5.00;28.80;26.80;;;;;;5096482;28;11375;-73
2022/06/22 03:26:18;;;;;;;;;5.00;5.00;28.80;26.80;;;;;;5096371;28;11591;-72
2022/06/22 03:28:52;;;;;;;;;6.00;6.00;28.80;26.90;;;;;;5096082;28;11405;-72
2022/06/22 03:31:32;;;;;;;;;5.00;5.00;28.80;27.00;;;;;;5096001;28;11418;-72
2022/06/22 03:34:05;;;;;;;;;6.00;6.00;28.70;27.30;;;;;;5095980;28;11389;-71
2022/06/22 03:36:43;;;;;;;;;7.75;7.75;28.70;27.20;;;;;;5095997;28;11387;-71
2022/06/22 03:39:14;;;;;;;;;7.00;7.00;28.80;27.10;;;;;;5091117;28;11417;-70
2022/06/22 03:41:48;;;;;;;;;6.00;6.00;28.90;27.20;;;;;;5066280;28;11408;-72
2022/06/22 03:44:19;;;;;;;;;5.00;5.00;29.00;27.20;;;;;;5075629;28;12208;-71
2022/06/22 03:46:55;;;;;;;;;7.25;7.25;29.00;27.40;;;;;;5075512;28;11581;-71
2022/06/22 03:49:39;;;;;;;;;7.00;7.00;29.00;27.40;;;;;;5075432;28;11362;-72
2022/06/22 03:52:12;;;;;;;;;5.75;5.75;29.00;27.50;;;;;;5075509;28;11429;-72
2022/06/22 03:54:56;;;;;;;;;7.25;7.25;28.80;27.70;;;;;;5075521;28;11401;-72
2022/06/22 03:57:27;;;;;;;;;6.75;6.75;28.70;27.90;;;;;;5075267;28;11391;-71
2022/06/22 03:59:56;;;;;;;;;6.25;6.25;28.70;28.40;;;;;;5074857;28;11452;-71
2022/06/22 04:02:24;;;;;;;;;8.00;8.00;28.60;28.70;;;;;;5075088;28;11470;-68
2022/06/22 04:04:54;;;;;;;;;6.75;6.75;28.60;28.90;;;;;;5075340;28;11405;-72
2022/06/22 04:07:21;;;;;;;;;8.00;8.00;28.60;29.30;;;;;;5074987;28;11420;-70
2022/06/22 04:09:53;;;;;;;;;8.25;8.25;28.50;29.50;;;;;;5075250;28;11486;-70
2022/06/22 04:12:35;;;;;;;;;8.25;8.25;28.50;29.70;;;;;;5074963;28;11452;-71
2022/06/22 04:15:24;;;;;;;;;9.75;9.75;28.50;29.70;;;;;;5074893;28;11417;-70
2022/06/22 04:17:58;;;;;;;;;10.00;10.00;28.50;29.60;;;;;;5074925;28;12076;-71
2022/06/22 04:20:52;;;;;;;;;9.00;9.00;28.60;29.40;;;;;;5074869;28;11407;-71
2022/06/22 04:23:21;;;;;;;;;8.75;8.75;28.50;29.20;;;;;;5074799;28;11402;-71
2022/06/22 04:25:48;;;;;;;;;9.00;9.00;28.50;29.50;;;;;;5074676;28;11415;-72
2022/06/22 04:28:15;;;;;;;;;10.75;10.75;28.40;29.20;;;;;;5074831;28;11395;-71
2022/06/22 04:30:49;;;;;;;;;7.50;7.50;28.50;29.30;;;;;;5057028;28;11525;-71
2022/06/22 04:33:29;;;;;;;;;9.00;9.00;28.60;29.30;;;;;;5074607;28;11401;-72
2022/06/22 04:36:12;;;;;;;;;8.00;8.00;28.70;28.90;;;;;;5074536;28;11472;-71
2022/06/22 04:39:02;;;;;;;;;9.00;9.00;28.60;28.90;;;;;;5075790;28;11674;-71
2022/06/22 04:41:39;;;;;;;;;12.00;12.00;28.60;28.70;;;;;;5094188;28;11415;-72
2022/06/22 04:44:27;;;;;;;;;11.00;11.00;28.60;28.70;;;;;;5074587;28;11571;-71
2022/06/22 04:47:17;;;;;;;;;11.50;11.50;28.70;28.30;;;;;;5074277;28;11454;-71
2022/06/22 04:49:58;;;;;;;;;12.00;12.00;28.60;27.90;;;;;;5074373;28;11488;-72
2022/06/22 04:52:33;;;;;;;;;11.67;11.67;28.70;27.70;;;;;;5074455;28;11476;-72
2022/06/22 04:55:03;;;;;;;;;10.75;10.75;28.70;27.70;;;;;;5074304;28;11414;-73
2022/06/22 04:57:35;;;;;;;;;11.50;11.50;28.90;27.50;;;;;;5074058;28;11372;-71
2022/06/22 05:00:06;;;;;;;;;8.00;8.00;28.90;27.20;;;;;;5074431;28;12119;-72
2022/06/22 05:02:37;;;;;;;;;10.00;10.00;29.00;27.30;;;;;;5074445;28;11446;-72
2022/06/22 05:05:18;;;;;;;;;9.00;9.00;29.00;26.80;;;;;;5074212;28;11465;-72
2022/06/22 05:07:44;;;;;;;;;10.00;10.00;29.20;26.50;;;;;;5074457;28;11625;-71
2022/06/22 05:10:34;;;;;;;;;10.00;10.00;29.20;26.40;;;;;;5073958;28;12048;-71
2022/06/22 05:13:04;;;;;;;;;8.33;8.33;29.40;26.30;;;;;;5074152;28;8812;-71
2022/06/22 05:15:39;;;;;;;;;7.50;7.50;29.50;26.20;;;;;;5074382;28;11414;-72
2022/06/22 05:18:13;;;;;;;;;7.00;7.00;29.50;25.90;;;;;;5074078;28;11434;-72
2022/06/22 05:20:53;;;;;;;;;11.00;11.00;29.60;26.50;;;;;;5074158;28;11386;-72
2022/06/22 05:23:22;;;;;;;;;12.33;12.33;29.50;26.00;;;;;;5075016;28;11442;-72
2022/06/22 05:25:53;;;;;;;;;13.00;13.00;29.50;26.30;;;;;;5074295;28;11425;-71
2022/06/22 05:28:28;;;;;;;;;9.67;9.67;29.40;26.80;;;;;;5056206;28;11476;-72
2022/06/22 05:31:04;;;;;;;;;10.00;10.00;29.20;26.90;;;;;;5074178;28;11445;-70
2022/06/22 05:33:30;;;;;;;;;10.00;10.00;29.20;26.90;;;;;;5073908;28;11428;-71
2022/06/22 05:36:05;;;;;;;;;11.00;11.00;29.10;26.70;;;;;;5091597;28;11433;-72
2022/06/22 05:38:35;;;;;;;;;9.33;9.33;29.10;26.90;;;;;;5094479;28;11445;-72
2022/06/22 05:41:04;;;;;;;;;10.00;10.00;29.20;26.80;;;;;;5094125;28;11384;-72
2022/06/22 05:43:32;;;;;;;;;10.50;10.50;29.50;26.60;;;;;;5094108;28;11424;-71
2022/06/22 05:46:02;;;;;;;;;8.25;8.25;29.70;26.60;;;;;;5094345;28;11447;-72
2022/06/22 05:48:31;;;;;;;;;7.00;7.00;29.90;26.60;;;;;;5094293;28;11368;-71
2022/06/22 05:51:06;;;;;;;;;6.00;6.00;29.90;26.40;;;;;;5093872;28;11409;-73
2022/06/22 05:53:44;;;;;;;;;7.00;7.00;29.80;26.10;;;;;;5091567;28;11409;-72
2022/06/22 05:56:32;;;;;;;;;6.25;6.25;29.80;26.30;;;;;;5089297;28;11369;-72
2022/06/22 05:59:09;;;;;;;;;7.00;7.00;29.40;26.60;;;;;;5093897;28;11356;-72
2022/06/22 06:01:59;;;;;;;;;7.00;7.00;29.40;26.70;;;;;;5093852;28;11409;-73
2022/06/22 06:04:41;;;;;;;;;7.00;7.00;29.30;26.70;;;;;;5093547;28;11393;-71
2022/06/22 06:07:35;;;;;;;;;5.25;5.25;29.20;26.60;;;;;;5093454;28;11421;-71
2022/06/22 06:10:06;;;;;;;;;7.25;7.25;29.40;26.70;;;;;;5093745;28;11378;-73
2022/06/22 06:12:39;;;;;;;;;5.00;5.00;29.30;26.60;;;;;;5093991;28;11397;-72
2022/06/22 06:15:08;;;;;;;;;8.00;8.00;29.40;26.10;;;;;;5087495;28;11382;-72
2022/06/22 06:17:38;;;;;;;;;8.00;8.00;29.50;26.20;;;;;;5073128;28;11506;-72
2022/06/22 06:20:14;;;;;;;;;8.00;8.00;29.50;25.70;;;;;;5073620;28;11406;-73
2022/06/22 06:22:41;;;;;;;;;6.25;6.25;29.60;26.00;;;;;;5077100;28;11383;-73
2022/06/22 06:28:10;;;;;;;;;9.00;9.00;29.80;26.20;;;;;;5080461;28;11593;-73
2022/06/22 06:30:46;;;;;;;;;9.67;9.67;30.20;26.10;;;;;;5087325;28;11508;-77
2022/06/22 06:33:26;;;;;;;;;5.25;5.25;30.20;26.50;;;;;;5094553;28;11427;-75
2022/06/22 06:36:04;;;;;;;;;8.00;8.00;30.20;26.00;;;;;;5097031;28;11409;-76
2022/06/22 06:38:37;;;;;;;;;7.67;7.67;30.30;26.20;;;;;;5093904;28;12181;-78
2022/06/22 06:41:17;;;;;;;;;3.50;3.50;30.40;26.40;;;;;;5095061;28;12076;-79
2022/06/22 06:43:59;;;;;;;;;7.75;7.75;30.50;26.10;;;;;;5076766;28;11484;-78
2022/06/22 06:46:35;;;;;;;;;8.00;8.00;30.50;26.20;;;;;;5076646;28;11364;-74
2022/06/22 06:49:36;;;;;;;;;9.33;9.33;30.50;26.10;;;;;;5076429;28;11445;-77
2022/06/22 06:52:04;;;;;;;;;7.50;7.50;30.40;25.70;;;;;;5073612;28;11461;-75
2022/06/22 06:54:36;;;;;;;;;8.67;8.67;30.20;25.90;;;;;;5076709;28;12036;-77
2022/06/22 06:57:13;;;;;;;;;8.00;8.00;30.20;26.00;;;;;;5076349;28;11377;-77
2022/06/22 06:59:41;;;;;;;;;9.33;9.33;30.50;25.80;;;;;;5076427;28;11409;-76
2022/06/22 07:02:32;;;;;;;;;8.00;8.00;30.50;25.50;;;;;;5076445;28;11545;-75
2022/06/22 07:05:01;;;;;;;;;6.00;6.00;30.60;26.30;;;;;;5076273;28;11395;-76
2022/06/22 07:07:50;;;;;;;;;6.00;6.00;30.60;24.90;;;;;;5076479;28;11428;-76
2022/06/22 07:10:19;;;;;;;;;6.00;6.00;30.70;24.70;;;;;;5076251;28;11427;-78
2022/06/22 07:12:55;;;;;;;;;7.00;7.00;30.60;24.50;;;;;;5076266;28;12071;-77
2022/06/22 07:15:26;;;;;;;;;6.50;6.50;30.60;24.90;;;;;;5076108;28;11425;-77
2022/06/22 07:17:56;;;;;;;;;2.00;2.00;30.80;25.70;;;;;;5076016;28;11456;-77
2022/06/22 07:20:36;;;;;;;;;7.75;7.75;30.60;24.90;;;;;;5076791;28;12075;-78
2022/06/22 07:23:33;;;;;;;;;6.50;6.50;30.50;24.70;;;;;;5075941;28;12085;-76
2022/06/22 07:26:08;;;;;;;;;7.00;7.00;30.50;25.10;;;;;;5070938;28;11395;-76
2022/06/22 07:28:39;;;;;;;;;7.00;7.00;30.50;25.20;;;;;;5075170;28;11414;-76
2022/06/22 07:31:23;;;;;;;;;5.00;5.00;30.50;25.30;;;;;;5075708;28;11432;-75
2022/06/22 07:34:01;;;;;;;;;7.50;7.50;30.40;24.90;;;;;;5074503;28;11464;-76
2022/06/22 07:36:35;;;;;;;;;7.00;7.00;30.40;24.90;;;;;;5075858;28;11735;-75
2022/06/22 07:39:04;;;;;;;;;7.75;7.75;30.40;25.30;;;;;;5075969;28;11441;-75
2022/06/22 07:41:31;;;;;;;;;5.25;5.25;30.30;25.20;;;;;;5075636;28;11543;-76
2022/06/22 07:44:04;;;;;;;;;9.00;9.00;30.20;25.20;;;;;;5075593;28;11363;-76
2022/06/22 07:46:38;;;;;;;;;7.00;7.00;30.20;25.50;;;;;;5075520;28;11396;-79
2022/06/22 07:49:12;;;;;;;;;10.50;10.50;30.10;25.70;;;;;;5075406;28;11403;-76
2022/06/22 07:51:46;;;;;;;;;8.00;8.00;30.00;26.00;;;;;;5075679;28;11477;-78
2022/06/22 07:54:36;;;;;;;;;8.33;8.33;30.10;25.90;;;;;;5075263;28;11414;-78
2022/06/22 07:57:42;;;;;;;;;9.33;9.33;30.30;25.90;;;;;;5074986;28;12092;-78
2022/06/22 08:00:19;;;;;;;;;8.50;8.50;30.40;26.30;;;;;;5057448;28;11445;-77
2022/06/22 08:02:59;;;;;;;;;6.50;6.50;30.50;25.80;;;;;;5075515;28;11509;-76
2022/06/22 08:05:31;;;;;;;;;11.00;11.00;30.40;25.20;;;;;;5075008;28;11430;-76
2022/06/22 08:08:11;;;;;;;;;10.00;10.00;30.50;25.70;;;;;;5075351;28;11442;-76
2022/06/22 08:10:58;;;;;;;;;10.00;10.00;30.60;26.20;;;;;;5074973;28;11401;-75
2022/06/22 08:13:28;;;;;;;;;9.00;9.00;30.50;26.40;;;;;;5074799;28;11413;-74
2022/06/22 08:16:12;;;;;;;;;10.67;10.67;30.50;25.80;;;;;;5074956;28;11409;-74
2022/06/22 08:18:38;;;;;;;;;3.75;3.75;30.60;25.90;;;;;;5074721;28;11568;-81
2022/06/22 08:21:06;;;;;;;;;6.00;6.00;30.80;26.60;;;;;;5075418;28;11945;-74
2022/06/22 08:23:35;;;;;;;;;7.00;7.00;30.70;25.40;;;;;;5075151;28;12015;-74
2022/06/22 08:26:09;;;;;;;;;5.00;5.00;30.70;25.20;;;;;;5074709;28;11405;-75
2022/06/22 08:28:38;;;;;;;;;9.00;9.00;30.80;25.10;;;;;;5074659;28;11397;-75
2022/06/22 08:31:04;;;;;;;;;9.00;9.00;31.10;25.00;;;;;;5075087;28;11540;-78
2022/06/22 08:33:44;;;;;;;;;9.00;9.00;31.40;26.00;;;;;;5074639;28;11483;-76
2022/06/22 08:36:44;;;;;;;;;9.00;9.00;31.30;25.10;;;;;;5074921;28;12119;-76
2022/06/22 08:39:18;;;;;;;;;8.00;8.00;31.70;24.80;;;;;;5070888;28;11436;-74
2022/06/22 08:42:01;;;;;;;;;7.25;7.25;31.60;24.90;;;;;;5074274;28;11436;-74
2022/06/22 08:44:33;;;;;;;;;6.00;6.00;31.50;25.60;;;;;;5074269;28;11452;-75
2022/06/22 08:47:23;;;;;;;;;7.00;7.00;31.20;26.40;;;;;;5074315;28;11570;-82
2022/06/22 08:50:21;;;;;;;;;8.25;8.25;31.30;25.50;;;;;;5074488;28;11379;-77
2022/06/22 08:52:58;;;;;;;;;4.00;4.00;31.10;25.50;;;;;;5074398;28;11463;-77
2022/06/22 08:55:37;;;;;;;;;8.00;8.00;31.20;25.40;;;;;;5074659;28;11503;-77
2022/06/22 08:58:09;;;;;;;;;8.00;8.00;31.30;24.70;;;;;;5074655;28;11438;-76
2022/06/22 09:00:56;;;;;;;;;7.50;7.50;31.20;24.20;;;;;;5074424;28;11394;-75
2022/06/22 09:03:54;;;;;;;;;8.25;8.25;31.10;25.50;;;;;;5074314;28;11466;-75
2022/06/22 09:06:42;;;;;;;;;8.75;8.75;31.10;25.20;;;;;;5074629;28;11981;-76
2022/06/22 09:09:22;;;;;;;;;7.75;7.75;31.00;25.20;;;;;;5074263;28;11466;-77
2022/06/22 09:12:03;;;;;;;;;6.75;6.75;31.10;25.10;;;;;;5074233;28;11504;-78
2022/06/22 09:14:49;;;;;;;;;7.75;7.75;31.30;25.20;;;;;;5074063;28;11398;-81
2022/06/22 09:17:25;;;;;;;;;8.25;8.25;31.60;25.40;;;;;;5073937;28;11433;-82
2022/06/22 09:19:56;;;;;;;;;7.00;7.00;31.60;24.20;;;;;;5073982;28;11428;-82
2022/06/22 09:22:43;;;;;;;;;6.00;6.00;31.70;24.60;;;;;;5074329;28;12098;-77
2022/06/22 09:25:17;;;;;;;;;8.75;8.75;31.10;24.40;;;;;;5073946;28;11388;-80
2022/06/22 09:27:58;;;;;;;;;8.50;8.50;31.30;24.50;;;;;;5073909;28;11407;-82
2022/06/22 09:30:52;;;;;;;;;8.00;8.00;30.80;25.20;;;;;;5073854;28;11397;-78
2022/06/22 09:33:18;;;;;;;;;9.50;9.50;30.80;25.00;;;;;;5073954;28;11511;-80
2022/06/22 09:36:16;;;;;;;;;7.00;7.00;31.60;25.20;;;;;;5073956;28;11532;-81
2022/06/22 09:38:59;;;;;;;;;7.25;7.25;32.80;24.80;;;;;;5074389;28;8797;-79
2022/06/22 09:41:28;;;;;;;;;6.75;6.75;33.60;24.10;;;;;;5074103;28;11415;-79
2022/06/22 09:44:27;;;;;;;;;6.75;6.75;33.70;23.80;;;;;;5073850;28;11480;-80
2022/06/22 09:47:03;;;;;;;;;9.00;9.00;34.30;23.50;;;;;;5073710;28;11407;-77
2022/06/22 09:50:04;;;;;;;;;7.75;7.75;34.70;22.80;;;;;;5073745;28;11387;-81
2022/06/22 09:52:54;;;;;;;;;8.50;8.50;34.40;22.40;;;;;;5054132;28;12182;-78
2022/06/22 09:58:48;;;;;;;;;8.00;8.00;34.30;22.20;;;;;;5077631;28;11961;-78
2022/06/22 10:01:46;;;;;;;;;10.00;10.00;34.80;22.50;;;;;;5077505;28;11401;-79
2022/06/22 10:04:31;;;;;;;;;10.25;10.25;34.50;22.60;;;;;;5076892;28;11417;-81
2022/06/22 10:07:18;;;;;;;;;8.75;8.75;34.40;22.50;;;;;;5077212;28;11434;-79
2022/06/22 10:10:15;;;;;;;;;7.00;7.00;34.50;21.30;;;;;;5077275;28;11411;-77
2022/06/22 10:13:13;;;;;;;;;6.25;6.25;34.50;22.50;;;;;;5077303;28;11560;-77
2022/06/22 10:16:20;;;;;;;;;5.00;5.00;34.20;21.90;;;;;;5015128;28;11461;-80
2022/06/22 10:19:06;;;;;;;;;5.25;5.25;33.80;19.80;;;;;;4937538;29;11485;-81
2022/06/22 10:22:04;;;;;;;;;3.50;3.50;33.80;20.70;;;;;;4937750;29;11512;-81
2022/06/22 10:24:51;;;;;;;;;4.50;4.50;34.00;21.80;;;;;;4937682;29;11444;-75
2022/06/22 10:27:54;;;;;;;;;4.25;4.25;34.20;20.40;;;;;;4937321;29;12274;-79
2022/06/22 10:30:45;;;;;;;;;4.00;4.00;34.10;18.80;;;;;;4937374;29;11527;-79
2022/06/22 10:33:20;;;;;;;;;3.00;3.00;33.60;19.40;;;;;;4937244;29;11506;-77
2022/06/22 10:35:48;;;;;;;;;3.00;3.00;33.60;17.90;;;;;;4937276;29;11466;-75
2022/06/22 10:38:46;;;;;;;;;4.50;4.50;34.00;18.80;;;;;;4937338;29;11475;-78
2022/06/22 10:47:19;;;;;;;;;7.75;7.75;34.70;19.20;;;;;;4937397;29;11442;-76
2022/06/22 10:50:18;;;;;;;;;8.50;8.25;35.00;18.50;;;;;;4936651;29;11473;-74
2022/06/22 10:53:14;;;;;;;;;9.00;9.00;35.20;19.70;;;;;;4995737;28;11545;-78
2022/06/22 10:56:00;;;;;;;;;6.25;6.25;35.50;20.30;;;;;;5068889;28;11584;-77
2022/06/22 10:58:38;;;;;;;;;6.00;6.00;35.50;22.10;;;;;;5086514;28;11450;-79
2022/06/22 11:01:29;;;;;;;;;9.50;9.50;35.30;20.90;;;;;;5096266;28;12394;-76
2022/06/22 11:04:10;;;;;;;;;8.75;8.75;35.20;19.50;;;;;;5089691;28;11435;-77
2022/06/22 11:07:00;;;;;;;;;10.00;10.00;35.10;21.00;;;;;;5093029;28;12126;-77
2022/06/22 11:10:23;;;;;;;;;7.25;7.25;35.40;21.10;;;;;;5094461;28;11500;-76
2022/06/22 11:12:58;;;;;;;;;9.00;9.00;35.10;20.20;;;;;;5001640;28;11489;-77
2022/06/22 11:15:49;;;;;;;;;7.00;7.00;35.60;20.20;;;;;;5004796;28;12213;-76
2022/06/22 11:18:47;;;;;;;;;10.25;10.25;36.40;20.80;;;;;;5003739;28;11463;-77
2022/06/22 11:21:31;;;;;;;;;8.50;8.50;36.60;20.30;;;;;;4943586;28;11723;-78
2022/06/22 11:24:38;;;;;;;;;7.00;7.00;37.00;19.60;;;;;;4944282;28;12444;-77
2022/06/22 11:31:04;;;;;;;;;10.00;10.00;37.50;19.70;;;;;;4941918;28;11413;-77
2022/06/22 11:33:39;;;;;;;;;10.00;10.00;37.70;19.30;;;;;;4934043;28;12160;-77
2022/06/22 11:37:07;;;;;;;;;11.75;11.75;37.60;19.70;;;;;;4939101;28;11491;-77
2022/06/22 11:39:57;;;;;;;;;7.25;7.25;37.80;20.10;;;;;;4863038;29;11654;-78
2022/06/22 11:42:43;;;;;;;;;9.75;9.75;37.80;19.50;;;;;;4876563;28;11538;-77
2022/06/22 11:45:50;;;;;;;;;10.75;10.75;38.00;20.10;;;;;;4933482;28;11441;-77
2022/06/22 11:48:48;;;;;;;;;9.00;9.00;37.40;19.50;;;;;;4944824;28;11448;-74
2022/06/22 11:51:44;;;;;;;;;10.50;10.50;37.70;20.20;;;;;;4922283;28;11491;-73
2022/06/22 11:54:42;;;;;;;;;6.75;6.75;37.90;20.10;;;;;;4936689;28;11601;-73
2022/06/22 11:57:29;;;;;;;;;11.00;11.00;37.60;20.20;;;;;;4957338;28;11543;-74
2022/06/22 12:00:13;;;;;;;;;11.25;11.25;37.90;19.40;;;;;;4998312;28;11554;-75
2022/06/22 12:02:56;;;;;;;;;12.00;12.00;37.40;19.80;;;;;;4981316;28;11464;-75
2022/06/22 12:05:51;;;;;;;;;10.75;10.75;37.80;20.40;;;;;;4991793;28;11453;-76
2022/06/22 12:08:54;;;;;;;;;7.00;7.00;38.40;20.80;;;;;;4938706;28;11582;-74
2022/06/22 12:11:32;;;;;;;;;12.00;12.00;38.40;19.90;;;;;;5086057;28;11463;-74
2022/06/22 12:17:29;;;;;;;;;13.50;13.50;38.70;20.10;;;;;;5086540;28;11409;-74
2022/06/22 12:20:04;;;;;;;;;13.50;13.50;38.40;20.30;;;;;;5088478;28;11399;-74
2022/06/22 12:23:03;;;;;;;;;11.00;11.00;38.40;20.60;;;;;;5092243;28;12165;-77
2022/06/22 12:25:49;;;;;;;;;11.75;11.75;38.60;20.50;;;;;;5063094;28;11469;-76
2022/06/22 12:28:36;;;;;;;;;17.33;17.33;38.00;21.90;;;;;;5090977;28;11523;-76
2022/06/22 12:31:10;;;;;;;;;12.00;12.00;38.10;22.40;;;;;;5091364;28;11472;-75
2022/06/22 12:33:51;;;;;;;;;14.25;14.25;38.50;22.00;;;;;;5092039;28;11440;-74
2022/06/22 12:36:42;;;;;;;;;13.50;13.50;38.50;20.90;;;;;;5094762;28;11409;-75
2022/06/22 12:39:27;;;;;;;;;12.00;12.00;38.60;21.50;;;;;;5095149;28;11534;-75
2022/06/22 12:42:30;;;;;;;;;12.50;12.50;38.90;21.60;;;;;;5088190;28;11458;-75
2022/06/22 12:45:25;;;;;;;;;13.50;13.50;38.90;21.60;;;;;;5076486;28;11577;-76
2022/06/22 12:48:23;;;;;;;;;14.75;14.75;39.00;21.60;;;;;;5036032;28;11417;-75
2022/06/22 12:50:59;;;;;;;;;15.25;15.25;39.40;21.40;;;;;;5073867;28;11462;-75
2022/06/22 12:53:53;;;;;;;;;15.25;15.25;39.20;21.10;;;;;;5091475;28;11479;-77
2022/06/22 12:56:37;;;;;;;;;13.75;13.75;39.10;21.30;;;;;;5091719;28;11493;-76
2022/06/22 12:59:35;;;;;;;;;11.75;11.75;39.30;21.50;;;;;;5092596;28;11538;-77
2022/06/22 13:02:05;;;;;;;;;11.00;11.00;39.60;21.20;;;;;;5062497;28;11545;-76
2022/06/22 13:04:35;;;;;;;;;12.75;12.75;39.10;21.20;;;;;;5093025;28;12100;-77
2022/06/22 13:07:07;;;;;;;;;14.25;14.25;39.10;21.50;;;;;;5092756;28;11423;-76
2022/06/22 13:09:34;;;;;;;;;15.00;15.00;39.40;21.40;;;;;;5088608;28;11523;-76
2022/06/22 13:12:11;;;;;;;;;13.75;13.75;39.00;21.10;;;;;;5076827;28;11483;-77
2022/06/22 13:14:58;;;;;;;;;12.00;12.00;39.30;21.50;;;;;;5081658;28;11445;-75
2022/06/22 13:18:01;;;;;;;;;15.00;15.00;39.40;21.30;;;;;;5074007;28;11462;-75
2022/06/22 13:20:41;;;;;;;;;13.00;13.00;39.80;21.60;;;;;;5087511;28;12057;-75
2022/06/22 13:23:38;;;;;;;;;12.75;12.75;39.70;21.50;;;;;;5086605;28;11412;-78
2022/06/22 13:26:24;;;;;;;;;15.00;15.00;39.70;21.00;;;;;;5088627;28;11433;-77
2022/06/22 13:29:02;;;;;;;;;11.75;11.75;39.90;21.30;;;;;;5091003;28;11424;-77
2022/06/22 13:31:33;;;;;;;;;12.00;12.00;40.20;22.00;;;;;;5093504;28;11470;-78
2022/06/22 13:34:05;;;;;;;;;14.00;14.00;40.00;21.20;;;;;;5091908;28;11451;-77
2022/06/22 13:36:55;;;;;;;;;13.00;13.00;39.90;21.50;;;;;;5089250;28;11458;-77
2022/06/22 13:39:48;;;;;;;;;14.00;14.00;39.20;21.40;;;;;;5096501;28;11432;-76
2022/06/22 13:42:29;;;;;;;;;9.25;9.25;38.40;22.60;;;;;;5098250;28;11457;-77
2022/06/22 13:45:18;;;;;;;;;14.25;14.25;37.80;23.00;;;;;;5098107;28;11544;-77
2022/06/22 13:48:01;;;;;;;;;14.00;14.00;38.40;23.30;;;;;;5098238;28;11454;-78
2022/06/22 13:51:03;;;;;;;;;15.50;15.50;38.40;23.00;;;;;;5098264;28;11543;-76
2022/06/22 13:53:33;;;;;;;;;15.00;15.00;38.30;23.30;;;;;;5097865;28;11487;-77
2022/06/22 13:56:40;;;;;;;;;14.67;14.67;37.80;23.10;;;;;;5097992;28;11462;-76
2022/06/22 13:59:23;;;;;;;;;14.33;14.33;37.80;23.50;;;;;;5097703;28;12143;-74
2022/06/22 14:01:59;;;;;;;;;9.33;9.33;37.90;23.60;;;;;;5097804;28;11480;-74
2022/06/22 14:04:32;;;;;;;;;8.25;8.25;37.70;23.10;;;;;;5097740;28;11376;-74
2022/06/22 14:07:10;;;;;;;;;13.00;13.00;36.70;24.20;;;;;;5097864;28;11407;-74
2022/06/22 14:09:51;;;;;;;;;13.00;13.00;36.80;24.30;;;;;;5097546;28;11451;-74
2022/06/22 14:12:44;;;;;;;;;11.25;11.25;37.00;24.70;;;;;;5097552;28;11579;-77